Time;durP1;ratioP1;P1;durP2;ratioP2;P2;SDS_P1;SDS_P2;PMS_P1;PMS_P2;Temp;Humidity;BMP_temperature;BMP_pressure;BME280_temperature;BME280_humidity;BME280_pressure;Samples;Min_cycle;Max_cycle;Signal;HPM_P1;HPM_P2
2023/12/07 00:00:41;;;;;;;25.70;16.38;;;21.20;50.60;;;;;;5038954;28;20663;-68
2023/12/07 00:03:06;;;;;;;23.98;15.70;;;21.20;50.60;;;;;;5038251;28;20441;-69
2023/12/07 00:05:33;;;;;;;23.88;15.27;;;21.20;50.60;;;;;;5040495;28;20094;-69
2023/12/07 00:07:58;;;;;;;24.10;16.70;;;21.20;50.60;;;;;;5037582;28;20022;-64
2023/12/07 00:10:24;;;;;;;23.50;15.05;;;21.20;50.60;;;;;;5040621;28;20159;-64
2023/12/07 00:12:50;;;;;;;22.20;14.93;;;21.20;50.60;;;;;;5039770;28;20040;-64
2023/12/07 00:15:15;;;;;;;19.45;13.15;;;21.10;50.60;;;;;;5038130;28;20127;-64
2023/12/07 00:17:41;;;;;;;22.17;14.23;;;21.10;50.60;;;;;;5040978;28;20394;-66
2023/12/07 00:20:07;;;;;;;22.35;14.13;;;21.10;50.70;;;;;;5041009;28;20028;-65
2023/12/07 00:22:33;;;;;;;19.50;13.32;;;21.10;50.70;;;;;;5034720;28;20432;-64
2023/12/07 00:24:58;;;;;;;22.25;13.75;;;21.10;50.70;;;;;;5036179;28;20092;-64
2023/12/07 00:27:24;;;;;;;20.52;13.90;;;21.00;50.70;;;;;;5038912;28;20147;-65
2023/12/07 00:29:50;;;;;;;20.23;13.68;;;21.00;50.70;;;;;;5038688;28;20506;-65
2023/12/07 00:32:15;;;;;;;20.38;13.23;;;21.00;50.70;;;;;;5037660;28;20040;-65
2023/12/07 00:34:41;;;;;;;20.98;13.02;;;21.00;50.70;;;;;;5038515;28;20044;-65
2023/12/07 00:37:07;;;;;;;19.25;12.75;;;21.00;50.70;;;;;;5038564;28;20400;-65
2023/12/07 00:39:33;;;;;;;19.13;12.73;;;21.00;50.70;;;;;;5037566;28;20021;-65
2023/12/07 00:41:58;;;;;;;19.55;13.25;;;20.90;50.60;;;;;;5039519;28;20022;-65
2023/12/07 00:44:24;;;;;;;19.27;12.82;;;20.90;50.70;;;;;;5037520;28;20037;-65
2023/12/07 00:46:50;;;;;;;17.75;12.10;;;20.90;50.70;;;;;;5038461;28;20489;-65
2023/12/07 00:49:16;;;;;;;17.70;11.98;;;20.90;50.70;;;;;;5036472;28;20029;-65
2023/12/07 00:51:41;;;;;;;16.95;11.48;;;20.90;50.80;;;;;;5036148;28;20052;-66
2023/12/07 00:54:07;;;;;;;16.83;11.30;;;20.80;50.70;;;;;;5035501;28;20030;-65
2023/12/07 00:56:37;;;;;;;18.75;11.68;;;20.80;50.70;;;;;;5039040;28;20133;-66
2023/12/07 00:59:02;;;;;;;18.65;12.18;;;20.80;50.80;;;;;;5037032;28;20021;-65
2023/12/07 01:01:28;;;;;;;17.00;11.35;;;20.80;50.80;;;;;;5038811;28;20362;-65
2023/12/07 01:03:54;;;;;;;15.77;11.32;;;20.80;50.80;;;;;;5039612;28;20491;-65
2023/12/07 01:06:19;;;;;;;16.88;11.27;;;20.80;50.80;;;;;;5037498;28;20033;-66
2023/12/07 01:08:45;;;;;;;16.58;11.30;;;20.80;50.80;;;;;;5035599;28;20082;-66
2023/12/07 01:11:10;;;;;;;16.55;10.75;;;20.70;50.80;;;;;;5036340;28;20937;-65
2023/12/07 01:13:36;;;;;;;15.00;10.02;;;20.70;50.80;;;;;;5039768;28;20033;-65
2023/12/07 01:16:02;;;;;;;16.38;11.02;;;20.70;50.90;;;;;;5038671;28;20041;-65
2023/12/07 01:18:27;;;;;;;14.85;10.48;;;20.70;50.90;;;;;;5037234;28;20030;-68
2023/12/07 01:20:53;;;;;;;15.23;9.98;;;20.60;50.80;;;;;;5040382;28;20449;-68
2023/12/07 01:23:18;;;;;;;15.18;10.10;;;20.60;50.90;;;;;;5034796;28;20030;-68
2023/12/07 01:25:44;;;;;;;14.50;10.02;;;20.60;50.90;;;;;;5039438;28;20027;-68
2023/12/07 01:28:09;;;;;;;15.15;9.80;;;20.60;51.00;;;;;;5036636;28;20778;-68
2023/12/07 01:30:36;;;;;;;14.40;10.10;;;20.60;51.00;;;;;;5039141;28;20116;-68
2023/12/07 01:33:01;;;;;;;14.07;9.40;;;20.60;51.10;;;;;;5038775;28;20913;-68
2023/12/07 01:35:28;;;;;;;15.10;9.80;;;20.50;51.10;;;;;;5036751;28;20025;-68
2023/12/07 01:37:54;;;;;;;14.55;10.27;;;20.50;51.10;;;;;;5038500;28;20080;-67
2023/12/07 01:40:19;;;;;;;15.25;9.80;;;20.50;51.10;;;;;;5041208;28;20765;-68
2023/12/07 01:42:52;;;;;;;14.30;9.68;;;20.50;51.10;;;;;;5040473;28;20021;-68
2023/12/07 01:45:19;;;;;;;13.38;8.93;;;20.50;51.20;;;;;;5040891;28;20559;-68
2023/12/07 01:47:46;;;;;;;14.63;9.68;;;20.40;51.10;;;;;;5039898;28;20029;-68
2023/12/07 01:50:15;;;;;;;13.85;9.65;;;20.40;51.20;;;;;;5039510;28;20029;-68
2023/12/07 01:52:45;;;;;;;13.65;9.00;;;20.40;51.20;;;;;;5039672;28;20040;-68
2023/12/07 01:55:12;;;;;;;12.05;8.70;;;20.40;51.20;;;;;;5040573;28;20409;-69
2023/12/07 01:57:38;;;;;;;13.63;9.00;;;20.40;51.30;;;;;;5042951;28;20047;-65
2023/12/07 02:00:05;;;;;;;11.85;9.15;;;20.40;51.30;;;;;;5041870;28;20029;-66
2023/12/07 02:02:32;;;;;;;11.77;8.70;;;20.30;51.30;;;;;;5042489;28;20045;-66
2023/12/07 02:04:57;;;;;;;13.50;8.82;;;20.30;51.30;;;;;;5041873;28;20430;-66
2023/12/07 02:07:23;;;;;;;12.98;8.82;;;20.30;51.30;;;;;;5040001;28;20029;-64
2023/12/07 02:09:49;;;;;;;12.90;8.57;;;20.30;51.30;;;;;;5038779;28;20029;-64
2023/12/07 02:12:15;;;;;;;13.35;8.20;;;20.30;51.30;;;;;;5042016;28;20038;-65
2023/12/07 02:14:41;;;;;;;12.90;8.40;;;20.30;51.40;;;;;;5041673;28;20029;-65
2023/12/07 02:17:19;;;;;;;13.10;8.30;;;20.20;51.40;;;;;;5043139;28;20029;-65
2023/12/07 02:20:01;;;;;;;12.80;7.95;;;20.20;51.40;;;;;;5039671;28;20025;-66
2023/12/07 02:22:36;;;;;;;9.98;7.50;;;20.20;51.40;;;;;;5042372;28;20029;-65
2023/12/07 02:25:09;;;;;;;11.65;7.85;;;20.20;51.50;;;;;;5072940;28;20085;-65
2023/12/07 02:27:42;;;;;;;11.55;8.05;;;20.20;51.50;;;;;;5039239;28;20029;-65
2023/12/07 02:30:09;;;;;;;11.00;7.60;;;20.20;51.50;;;;;;5041034;28;20030;-65
2023/12/07 02:32:39;;;;;;;11.18;7.70;;;20.20;51.50;;;;;;5038268;28;20053;-65
2023/12/07 02:35:07;;;;;;;10.20;7.63;;;20.20;51.50;;;;;;5039227;28;20040;-66
2023/12/07 02:37:41;;;;;;;10.30;7.30;;;20.20;51.60;;;;;;5039645;28;20060;-66
2023/12/07 02:40:11;;;;;;;11.00;7.63;;;20.20;51.60;;;;;;5036885;28;20036;-66
2023/12/07 02:42:40;;;;;;;11.00;7.60;;;20.10;51.50;;;;;;5039450;28;20404;-66
2023/12/07 02:45:07;;;;;;;;;;;20.10;51.60;;;;;;5040751;28;20053;-65
2023/12/07 02:47:33;;;;;;;10.57;7.22;;;20.10;51.60;;;;;;5040814;28;20365;-66
2023/12/07 02:49:59;;;;;;;10.57;6.90;;;20.10;51.60;;;;;;5041103;28;20036;-65
2023/12/07 02:52:24;;;;;;;11.15;7.35;;;20.10;51.70;;;;;;5041329;28;20090;-66
2023/12/07 02:54:50;;;;;;;11.60;7.45;;;20.10;51.70;;;;;;5037296;28;20037;-66
2023/12/07 02:57:16;;;;;;;10.30;7.68;;;20.10;51.70;;;;;;5038719;28;20111;-66
2023/12/07 02:59:41;;;;;;;11.60;7.75;;;20.00;51.70;;;;;;5040962;28;20493;-66
2023/12/07 03:02:07;;;;;;;11.02;7.28;;;20.00;52.00;;;;;;5042391;28;20055;-66
2023/12/07 03:04:32;;;;;;;10.35;6.80;;;20.00;51.70;;;;;;5039391;28;20036;-65
2023/12/07 03:06:58;;;;;;;9.65;6.65;;;20.00;51.70;;;;;;5040953;28;20108;-67
2023/12/07 03:09:24;;;;;;;10.48;7.15;;;20.00;51.80;;;;;;5037787;28;20083;-66
2023/12/07 03:11:50;;;;;;;10.73;7.13;;;19.90;51.80;;;;;;5040759;28;20025;-66
2023/12/07 03:14:16;;;;;;;10.30;6.88;;;19.90;51.80;;;;;;5040514;28;20032;-66
2023/12/07 03:16:41;;;;;;;10.13;7.00;;;19.90;51.80;;;;;;5039305;28;20493;-65
2023/12/07 03:19:07;;;;;;;9.75;6.85;;;19.90;51.90;;;;;;5041168;28;20056;-68
2023/12/07 03:21:33;;;;;;;9.27;6.22;;;19.90;51.90;;;;;;5039771;28;20477;-69
2023/12/07 03:23:58;;;;;;;9.15;6.57;;;19.90;51.90;;;;;;5039160;28;20028;-69
2023/12/07 03:26:24;;;;;;;9.55;6.70;;;19.90;51.90;;;;;;5039924;28;20132;-68
2023/12/07 03:28:49;;;;;;;9.27;6.50;;;19.90;51.90;;;;;;5038246;28;20105;-68
2023/12/07 03:31:15;;;;;;;9.50;6.70;;;19.90;51.90;;;;;;5039118;28;20037;-68
2023/12/07 03:33:44;;;;;;;9.40;6.60;;;19.90;52.00;;;;;;5037740;28;20025;-68
2023/12/07 03:36:13;;;;;;;7.90;5.72;;;19.80;51.90;;;;;;5037112;28;20115;-68
2023/12/07 03:38:38;;;;;;;7.90;5.95;;;19.80;51.90;;;;;;5040329;28;20105;-66
2023/12/07 03:41:04;;;;;;;8.18;6.18;;;19.80;52.00;;;;;;5037890;28;20183;-66
2023/12/07 03:43:30;;;;;;;8.38;6.25;;;19.80;52.00;;;;;;5040394;28;20029;-66
2023/12/07 03:45:55;;;;;;;9.20;6.43;;;19.80;52.00;;;;;;5041322;28;20048;-67
2023/12/07 03:48:21;;;;;;;8.90;6.05;;;19.80;52.00;;;;;;5039281;28;20032;-65
2023/12/07 03:50:46;;;;;;;8.07;5.68;;;19.80;52.10;;;;;;5038100;28;20044;-66
2023/12/07 03:53:12;;;;;;;8.00;5.47;;;19.70;52.00;;;;;;5038011;28;20437;-65
2023/12/07 03:55:38;;;;;;;8.57;5.78;;;19.80;52.10;;;;;;5037908;28;20207;-66
2023/12/07 03:58:05;;;;;;;8.85;6.13;;;19.70;52.10;;;;;;5037883;28;20021;-66
2023/12/07 04:00:32;;;;;;;7.57;5.38;;;19.70;52.10;;;;;;5038644;28;20025;-66
2023/12/07 04:02:58;;;;;;;8.50;5.80;;;19.70;52.20;;;;;;5039657;28;20029;-65
2023/12/07 04:05:23;;;;;;;8.23;5.47;;;19.70;52.20;;;;;;5046019;28;20036;-66
2023/12/07 04:07:49;;;;;;;8.35;6.00;;;19.70;52.20;;;;;;5036784;28;20094;-66
2023/12/07 04:10:15;;;;;;;7.57;5.60;;;19.70;52.20;;;;;;5037432;28;20032;-66
2023/12/07 04:12:40;;;;;;;8.05;5.60;;;19.70;52.20;;;;;;5037355;28;20123;-65
2023/12/07 04:15:07;;;;;;;7.70;5.20;;;19.70;52.30;;;;;;5037473;28;20052;-66
2023/12/07 04:17:32;;;;;;;8.70;5.55;;;19.70;52.30;;;;;;5042123;28;20040;-67
2023/12/07 04:19:58;;;;;;;7.22;5.13;;;19.70;52.30;;;;;;5034715;28;20034;-65
2023/12/07 04:22:23;;;;;;;7.80;5.60;;;19.70;52.30;;;;;;5038499;28;20029;-65
2023/12/07 04:24:49;;;;;;;7.93;5.47;;;19.60;52.30;;;;;;5038551;28;20033;-65
2023/12/07 04:27:15;;;;;;;7.43;5.03;;;19.60;52.30;;;;;;5038004;28;20036;-66
2023/12/07 04:29:41;;;;;;;6.70;5.13;;;19.60;52.30;;;;;;5054923;28;20035;-69
2023/12/07 04:32:07;;;;;;;7.32;5.13;;;19.60;52.40;;;;;;5046400;28;20469;-69
2023/12/07 04:34:33;;;;;;;8.48;5.75;;;19.60;52.90;;;;;;5037726;28;20033;-69
2023/12/07 04:36:59;;;;;;;7.90;5.20;;;19.60;52.40;;;;;;5036661;28;20025;-69
2023/12/07 04:39:25;;;;;;;8.18;5.10;;;19.60;52.50;;;;;;5037984;28;20029;-68
2023/12/07 04:41:51;;;;;;;8.23;5.65;;;19.60;52.50;;;;;;5037385;28;20192;-68
2023/12/07 04:44:16;;;;;;;7.70;5.25;;;19.50;52.50;;;;;;5038078;28;20503;-68
2023/12/07 04:46:42;;;;;;;6.97;5.05;;;19.50;52.50;;;;;;5038107;28;20104;-68
2023/12/07 04:49:08;;;;;;;7.72;5.40;;;19.50;52.50;;;;;;5037795;28;20116;-69
2023/12/07 04:51:34;;;;;;;7.50;5.15;;;19.50;52.50;;;;;;5037636;28;20446;-68
2023/12/07 04:54:00;;;;;;;6.75;4.75;;;19.50;52.50;;;;;;5036730;28;20517;-68
2023/12/07 04:56:25;;;;;;;7.13;5.07;;;19.50;52.60;;;;;;5043671;28;20981;-68
2023/12/07 04:58:51;;;;;;;8.18;5.25;;;19.50;52.60;;;;;;5038082;28;20043;-69
2023/12/07 05:01:18;;;;;;;6.88;4.85;;;19.50;52.70;;;;;;5037425;28;20087;-68
2023/12/07 05:03:45;;;;;;;6.85;5.03;;;19.50;52.70;;;;;;5039476;28;20021;-68
2023/12/07 05:06:10;;;;;;;7.10;4.72;;;19.50;52.80;;;;;;5038123;28;20026;-69
2023/12/07 05:08:36;;;;;;;6.03;4.55;;;19.50;52.80;;;;;;5036321;28;20033;-66
2023/12/07 05:11:01;;;;;;;6.45;4.22;;;19.50;52.80;;;;;;5034741;28;20095;-67
2023/12/07 05:13:27;;;;;;;7.00;4.63;;;19.50;52.80;;;;;;5040619;28;20203;-67
2023/12/07 05:15:53;;;;;;;6.63;4.43;;;19.50;52.80;;;;;;5040482;28;20029;-67
2023/12/07 05:18:18;;;;;;;7.50;4.63;;;19.50;52.90;;;;;;5041966;28;20483;-66
2023/12/07 05:20:44;;;;;;;6.65;4.60;;;19.40;52.80;;;;;;5041779;28;20029;-66
2023/12/07 05:23:10;;;;;;;7.95;4.70;;;19.40;52.90;;;;;;5041512;28;20022;-67
2023/12/07 05:25:35;;;;;;;7.78;5.28;;;19.40;52.90;;;;;;5040918;28;20036;-66
2023/12/07 05:28:01;;;;;;;7.53;4.72;;;19.40;52.90;;;;;;5043276;28;20025;-64
2023/12/07 05:30:27;;;;;;;7.20;4.85;;;19.40;52.90;;;;;;5040859;28;20540;-64
2023/12/07 05:32:53;;;;;;;6.88;4.65;;;19.40;53.00;;;;;;5043071;28;20044;-64
2023/12/07 05:35:19;;;;;;;6.95;4.97;;;19.40;53.00;;;;;;5040797;28;20029;-64
2023/12/07 05:37:45;;;;;;;6.75;5.00;;;19.40;53.00;;;;;;5039942;28;20037;-66
2023/12/07 05:40:12;;;;;;;7.10;4.75;;;19.40;53.00;;;;;;5040138;28;20529;-65
2023/12/07 05:42:37;;;;;;;6.75;4.60;;;19.40;53.00;;;;;;5041670;28;20029;-65
2023/12/07 05:45:04;;;;;;;6.95;4.85;;;19.40;53.60;;;;;;5040086;28;20434;-66
2023/12/07 05:47:30;;;;;;;7.35;4.88;;;19.40;53.10;;;;;;5042535;28;20029;-65
2023/12/07 05:49:58;;;;;;;6.55;4.50;;;19.40;53.10;;;;;;5041884;28;20091;-65
2023/12/07 05:52:23;;;;;;;7.00;4.72;;;19.40;53.10;;;;;;5041623;28;20041;-65
2023/12/07 05:54:49;;;;;;;5.90;4.00;;;19.40;53.20;;;;;;5040050;28;20024;-65
2023/12/07 05:57:14;;;;;;;6.30;4.60;;;19.40;53.10;;;;;;5040749;28;20480;-65
2023/12/07 05:59:41;;;;;;;6.25;4.15;;;19.40;53.20;;;;;;5039534;28;20021;-65
2023/12/07 06:02:07;;;;;;;6.22;4.65;;;19.40;53.20;;;;;;5041429;28;20032;-64
2023/12/07 06:04:33;;;;;;;6.40;4.65;;;19.40;53.80;;;;;;5041267;28;20384;-65
2023/12/07 06:06:58;;;;;;;7.75;4.63;;;19.40;53.30;;;;;;5039817;28;20017;-65
2023/12/07 06:09:24;;;;;;;6.60;4.28;;;19.40;53.30;;;;;;5039675;28;20112;-64
2023/12/07 06:11:49;;;;;;;5.93;3.88;;;19.40;53.30;;;;;;5039047;28;20363;-65
2023/12/07 06:14:15;;;;;;;7.63;4.55;;;19.30;53.30;;;;;;5042707;28;20021;-65
2023/12/07 06:16:40;;;;;;;6.38;4.43;;;19.40;53.30;;;;;;5041356;28;20420;-65
2023/12/07 06:19:06;;;;;;;6.43;4.57;;;19.40;53.40;;;;;;5043297;28;20033;-66
2023/12/07 06:21:33;;;;;;;7.65;4.85;;;19.40;53.40;;;;;;5040243;28;20398;-66
2023/12/07 06:23:58;;;;;;;8.30;4.72;;;19.40;53.40;;;;;;5041964;28;20025;-66
2023/12/07 06:26:25;;;;;;;6.97;4.20;;;19.40;53.40;;;;;;5038766;28;20087;-66
2023/12/07 06:28:51;;;;;;;6.82;4.18;;;19.40;53.40;;;;;;5041488;28;20035;-66
2023/12/07 06:31:21;;;;;;;6.43;4.03;;;19.40;53.50;;;;;;5041205;28;20021;-66
2023/12/07 06:33:47;;;;;;;6.18;4.15;;;19.40;53.50;;;;;;5040480;28;20486;-66
2023/12/07 06:36:20;;;;;;;6.80;3.95;;;19.40;53.50;;;;;;5038999;28;20033;-66
2023/12/07 06:38:46;;;;;;;6.75;4.38;;;19.40;54.10;;;;;;5040658;28;20070;-65
2023/12/07 06:41:11;;;;;;;6.63;4.22;;;19.40;53.50;;;;;;5040421;28;20029;-66
2023/12/07 06:43:37;;;;;;;6.13;3.85;;;19.40;53.50;;;;;;5042458;28;20115;-65
2023/12/07 06:46:03;;;;;;;6.65;4.25;;;19.40;53.50;;;;;;5038367;28;20032;-65
2023/12/07 06:48:28;;;;;;;6.05;3.50;;;19.40;54.30;;;;;;5039357;28;20041;-64
2023/12/07 06:50:54;;;;;;;8.02;3.90;;;19.40;54.20;;;;;;5039498;28;20080;-64
2023/12/07 06:53:20;;;;;;;6.15;4.00;;;19.40;55.30;;;;;;5039924;28;20033;-65
2023/12/07 06:55:45;;;;;;;6.88;4.00;;;19.50;54.90;;;;;;5038544;28;20028;-64
2023/12/07 06:58:11;;;;;;;7.57;4.45;;;19.60;54.20;;;;;;5038366;28;20029;-64
2023/12/07 07:00:36;;;;;;;7.53;4.57;;;19.70;54.00;;;;;;5041176;28;20025;-64
2023/12/07 07:03:02;;;;;;;7.72;5.00;;;19.90;53.70;;;;;;5039417;28;20029;-64
2023/12/07 07:05:28;;;;;;;7.53;4.65;;;20.00;53.40;;;;;;5040642;28;20167;-64
2023/12/07 07:07:55;;;;;;;7.57;5.03;;;20.10;53.20;;;;;;5039477;28;20091;-63
2023/12/07 07:10:21;;;;;;;8.32;4.70;;;20.20;53.10;;;;;;5040460;28;20385;-65
2023/12/07 07:12:46;;;;;;;9.32;4.80;;;20.20;52.90;;;;;;5034901;28;20044;-65
2023/12/07 07:15:12;;;;;;;7.60;4.72;;;20.30;52.90;;;;;;5040078;28;20075;-64
2023/12/07 07:17:38;;;;;;;7.57;4.57;;;20.40;52.80;;;;;;5043574;28;20025;-63
2023/12/07 07:20:04;;;;;;;7.82;4.38;;;20.50;52.50;;;;;;5039843;28;20017;-65
2023/12/07 07:22:30;;;;;;;6.60;4.47;;;20.60;52.30;;;;;;5040408;28;20052;-64
2023/12/07 07:24:56;;;;;;;7.32;4.78;;;20.70;52.30;;;;;;5040156;28;20462;-64
2023/12/07 07:27:21;;;;;;;6.85;4.65;;;20.70;52.20;;;;;;5039832;28;20045;-64
2023/12/07 07:29:47;;;;;;;6.63;4.30;;;20.80;52.70;;;;;;5039727;28;20033;-66
2023/12/07 07:32:12;;;;;;;7.03;4.60;;;20.90;52.10;;;;;;5040456;28;20448;-66
2023/12/07 07:34:39;;;;;;;6.43;3.97;;;21.00;51.90;;;;;;5040093;28;20025;-66
2023/12/07 07:37:06;;;;;;;6.95;4.45;;;21.10;51.70;;;;;;5039183;28;20029;-66
2023/12/07 07:39:32;;;;;;;6.15;4.00;;;21.20;51.60;;;;;;5039341;28;20022;-65
2023/12/07 07:41:58;;;;;;;6.88;4.45;;;21.30;51.90;;;;;;5039373;28;20028;-65
2023/12/07 07:44:23;;;;;;;6.68;4.32;;;21.30;51.10;;;;;;5039222;28;20090;-65
2023/12/07 07:46:49;;;;;;;6.82;4.28;;;21.40;50.70;;;;;;5037958;28;20025;-66
2023/12/07 07:49:15;;;;;;;6.25;4.03;;;21.50;50.60;;;;;;5039151;28;20037;-68
2023/12/07 07:51:40;;;;;;;6.93;4.32;;;21.60;50.60;;;;;;5039394;28;20124;-68
2023/12/07 07:54:06;;;;;;;6.07;4.18;;;21.60;50.40;;;;;;5038686;28;20029;-68
2023/12/07 07:56:31;;;;;;;5.80;3.90;;;21.70;50.30;;;;;;5038544;28;20025;-68
2023/12/07 07:59:00;;;;;;;6.40;3.83;;;21.70;50.70;;;;;;5039047;28;20064;-68
2023/12/07 08:01:26;;;;;;;6.72;4.20;;;21.70;50.20;;;;;;5039392;28;20116;-68
2023/12/07 08:03:51;;;;;;;5.55;3.40;;;21.80;50.20;;;;;;5037876;28;20105;-68
2023/12/07 08:06:17;;;;;;;5.65;3.60;;;21.80;50.10;;;;;;5038097;28;20029;-68
2023/12/07 08:08:43;;;;;;;5.57;3.85;;;21.90;50.00;;;;;;5038031;28;20037;-68
2023/12/07 08:11:08;;;;;;;5.32;3.90;;;22.00;50.00;;;;;;5037081;28;20029;-68
2023/12/07 08:13:34;;;;;;;6.43;3.90;;;22.10;49.80;;;;;;5040138;28;20409;-68
2023/12/07 08:16:01;;;;;;;5.88;4.00;;;22.10;49.30;;;;;;5038181;28;20537;-68
2023/12/07 08:18:27;;;;;;;6.00;3.90;;;22.20;49.20;;;;;;5039167;28;20025;-68
2023/12/07 08:20:53;;;;;;;5.93;3.90;;;22.20;49.20;;;;;;5039987;28;20112;-68
2023/12/07 08:23:18;;;;;;;6.78;3.83;;;22.20;49.00;;;;;;5037533;28;20375;-68
2023/12/07 08:25:44;;;;;;;5.57;3.60;;;22.30;48.90;;;;;;5038345;28;20028;-68
2023/12/07 08:28:09;;;;;;;5.85;3.80;;;22.30;48.90;;;;;;5037122;28;20099;-68
2023/12/07 08:30:36;;;;;;;5.15;3.50;;;22.40;48.80;;;;;;5040367;28;20075;-68
2023/12/07 08:33:02;;;;;;;4.90;3.17;;;22.50;49.00;;;;;;5040386;28;20378;-67
2023/12/07 08:35:27;;;;;;;5.63;3.45;;;22.50;48.80;;;;;;5040359;28;20048;-68
2023/12/07 08:37:53;;;;;;;4.53;3.05;;;22.60;48.70;;;;;;5039892;28;20171;-66
2023/12/07 08:40:19;;;;;;;5.40;3.55;;;22.60;48.50;;;;;;5037264;28;20021;-66
2023/12/07 08:42:46;;;;;;;5.43;3.42;;;22.70;48.50;;;;;;5035026;28;20109;-65
2023/12/07 08:45:15;;;;;;;5.43;3.92;;;22.80;48.30;;;;;;5039834;28;20029;-66
2023/12/07 08:47:41;;;;;;;5.45;3.30;;;22.80;48.20;;;;;;5043465;28;20036;-65
2023/12/07 08:50:07;;;;;;;5.88;3.85;;;22.90;48.00;;;;;;5042599;28;20064;-66
2023/12/07 08:52:33;;;;;;;5.00;3.30;;;22.90;47.80;;;;;;5041408;28;20992;-66
2023/12/07 08:54:59;;;;;;;5.57;3.30;;;23.00;47.80;;;;;;5043461;28;20025;-65
2023/12/07 08:57:25;;;;;;;4.82;3.00;;;22.90;47.80;;;;;;5041970;28;20032;-65
2023/12/07 08:59:50;;;;;;;4.88;3.47;;;22.90;47.80;;;;;;5042401;28;20032;-64
2023/12/07 09:02:16;;;;;;;5.40;3.22;;;22.90;47.80;;;;;;5044905;28;20439;-65
2023/12/07 09:04:42;;;;;;;4.88;3.22;;;22.90;47.80;;;;;;5043042;28;20096;-66
2023/12/07 09:07:09;;;;;;;4.78;3.05;;;22.80;47.80;;;;;;5075355;28;20780;-65
2023/12/07 09:09:35;;;;;;;5.13;3.33;;;22.80;47.90;;;;;;5045198;28;20025;-67
2023/12/07 09:12:00;;;;;;;3.80;2.63;;;22.80;48.00;;;;;;5041570;28;20032;-67
2023/12/07 09:14:29;;;;;;;4.18;3.10;;;22.80;48.00;;;;;;5040755;28;20026;-68
2023/12/07 09:16:55;;;;;;;4.50;3.25;;;22.80;47.90;;;;;;5042953;28;20389;-68
2023/12/07 09:19:20;;;;;;;4.70;3.10;;;22.70;48.00;;;;;;5049173;28;20029;-68
2023/12/07 09:21:46;;;;;;;4.70;3.10;;;22.70;48.00;;;;;;5040238;28;20460;-67
2023/12/07 09:24:12;;;;;;;4.82;3.25;;;22.70;47.90;;;;;;5040008;28;20026;-68
2023/12/07 09:26:37;;;;;;;3.83;2.95;;;22.70;47.90;;;;;;5039817;28;20035;-68
2023/12/07 09:29:03;;;;;;;4.47;2.95;;;22.60;47.80;;;;;;5044120;28;20084;-68
2023/12/07 09:31:28;;;;;;;4.05;2.72;;;22.60;48.00;;;;;;5040944;28;20033;-67
2023/12/07 09:33:54;;;;;;;4.68;2.70;;;22.60;48.20;;;;;;5043835;28;20033;-67
2023/12/07 09:36:21;;;;;;;4.40;2.42;;;22.60;48.30;;;;;;5043337;28;20512;-67
2023/12/07 09:38:47;;;;;;;3.28;2.00;;;22.60;48.50;;;;;;5041157;28;20485;-67
2023/12/07 09:41:13;;;;;;;2.92;1.88;;;22.50;48.60;;;;;;5040375;28;20032;-67
2023/12/07 09:43:39;;;;;;;3.38;2.10;;;22.50;48.70;;;;;;5039636;28;20498;-68
2023/12/07 09:46:06;;;;;;;3.40;2.17;;;22.50;48.90;;;;;;5042167;28;20021;-68
2023/12/07 09:48:32;;;;;;;2.95;1.95;;;22.50;49.00;;;;;;5043485;28;20099;-65
2023/12/07 09:51:00;;;;;;;4.65;2.33;;;22.50;49.00;;;;;;5043205;28;20036;-65
2023/12/07 09:53:29;;;;;;;3.80;2.58;;;22.50;49.30;;;;;;5043493;28;20095;-65
2023/12/07 09:55:54;;;;;;;4.80;2.85;;;22.50;49.00;;;;;;5040969;28;20033;-64
2023/12/07 09:58:20;;;;;;;3.90;2.90;;;22.60;48.80;;;;;;5038849;28;20025;-64
2023/12/07 10:00:47;;;;;;;4.40;2.90;;;22.50;48.60;;;;;;5040568;28;20056;-64
2023/12/07 10:03:22;;;;;;;4.82;2.97;;;22.50;48.50;;;;;;5041387;28;20075;-65
2023/12/07 10:05:59;;;;;;;4.32;2.80;;;22.50;48.40;;;;;;5040612;28;20489;-64
2023/12/07 10:08:32;;;;;;;5.22;3.00;;;22.50;48.40;;;;;;5040691;28;20029;-68
2023/12/07 10:11:06;;;;;;;6.20;2.80;;;22.50;48.40;;;;;;5040158;28;20125;-68
2023/12/07 10:13:32;;;;;;;4.50;3.10;;;22.40;48.40;;;;;;5039798;28;20562;-68
2023/12/07 10:16:09;;;;;;;3.80;2.60;;;22.40;48.40;;;;;;5039163;28;20559;-68
2023/12/07 10:18:35;;;;;;;4.50;2.75;;;22.40;48.50;;;;;;5042545;28;20021;-66
2023/12/07 10:21:01;;;;;;;4.55;3.00;;;22.40;49.10;;;;;;5041446;28;20021;-66
2023/12/07 10:23:27;;;;;;;4.20;2.60;;;22.30;48.50;;;;;;5042116;28;20031;-66
2023/12/07 10:25:53;;;;;;;4.30;2.90;;;22.30;48.60;;;;;;5041849;28;20028;-66
2023/12/07 10:28:19;;;;;;;4.68;3.28;;;22.30;48.70;;;;;;5041359;28;20038;-66
2023/12/07 10:30:45;;;;;;;4.13;2.65;;;22.30;48.80;;;;;;5038678;28;20051;-66
2023/12/07 10:33:13;;;;;;;4.18;2.78;;;22.30;48.80;;;;;;5040624;28;20037;-66
2023/12/07 10:35:43;;;;;;;4.18;2.72;;;22.30;48.90;;;;;;5038997;28;20025;-66
2023/12/07 10:38:09;;;;;;;4.57;2.97;;;22.30;48.90;;;;;;5040789;28;20071;-65
2023/12/07 10:40:35;;;;;;;4.60;2.90;;;22.30;49.00;;;;;;5042227;28;20501;-65
2023/12/07 10:43:05;;;;;;;3.80;2.70;;;22.30;49.00;;;;;;5040357;28;20071;-65
2023/12/07 10:45:31;;;;;;;5.00;2.80;;;22.20;48.90;;;;;;5040267;28;20388;-66
2023/12/07 10:48:05;;;;;;;4.60;2.75;;;22.20;48.90;;;;;;5041763;28;20511;-66
2023/12/07 10:50:34;;;;;;;4.05;2.70;;;22.20;49.00;;;;;;5039205;28;20096;-66
2023/12/07 10:53:04;;;;;;;;;;;22.20;49.00;;;;;;5040179;28;20571;-66
2023/12/07 10:55:36;;;;;;;4.20;2.63;;;22.20;49.10;;;;;;5038163;28;19909;-66
2023/12/07 10:58:05;;;;;;;4.22;2.90;;;22.20;49.10;;;;;;5036495;28;20531;-66
2023/12/07 11:00:31;;;;;;;3.97;2.53;;;22.10;49.10;;;;;;5039196;28;20033;-65
2023/12/07 11:02:58;;;;;;;4.18;2.47;;;22.10;49.20;;;;;;5041529;28;20419;-64
2023/12/07 11:05:25;;;;;;;4.20;2.38;;;22.10;49.30;;;;;;5039552;28;20083;-65
2023/12/07 11:07:58;;;;;;;3.40;2.20;;;22.10;49.30;;;;;;5040983;28;20033;-64
2023/12/07 11:10:50;;;;;;;3.35;2.33;;;22.10;49.40;;;;;;5038517;28;20029;-64
2023/12/07 11:13:27;;;;;;;4.40;3.03;;;22.10;50.00;;;;;;5040176;28;20052;-64
2023/12/07 11:15:52;;;;;;;3.88;2.50;;;22.10;49.50;;;;;;5040631;28;20527;-64
2023/12/07 11:18:18;;;;;;;4.32;2.70;;;22.10;49.50;;;;;;5039086;28;20025;-65
2023/12/07 11:20:47;;;;;;;5.18;2.80;;;22.00;49.40;;;;;;5040068;28;20092;-65
2023/12/07 11:23:17;;;;;;;5.35;2.75;;;22.00;49.50;;;;;;5041272;28;20498;-65
2023/12/07 11:25:45;;;;;;;3.42;2.53;;;22.00;49.60;;;;;;5040175;28;20116;-66
2023/12/07 11:28:12;;;;;;;3.92;2.17;;;22.00;49.60;;;;;;5037287;28;20029;-66
2023/12/07 11:30:38;;;;;;;3.95;2.50;;;22.00;49.80;;;;;;5038977;28;20128;-66
2023/12/07 11:33:05;;;;;;;4.57;2.55;;;22.00;49.80;;;;;;5037753;28;20443;-65
2023/12/07 11:35:31;;;;;;;4.05;2.75;;;22.00;49.70;;;;;;5037895;28;20560;-65
2023/12/07 11:38:01;;;;;;;4.50;2.60;;;21.90;49.60;;;;;;5038500;28;20017;-65
2023/12/07 11:40:27;;;;;;;3.92;2.70;;;21.90;49.60;;;;;;5038784;28;20025;-65
2023/12/07 11:42:53;;;;;;;3.60;2.60;;;21.90;49.60;;;;;;5037380;28;20044;-66
2023/12/07 11:45:39;;;;;;;3.65;2.50;;;21.90;49.50;;;;;;5038821;28;20036;-65
2023/12/07 11:48:12;;;;;;;4.90;2.83;;;21.90;49.80;;;;;;5039978;28;20030;-65
2023/12/07 11:50:56;;;;;;;3.58;2.30;;;21.90;49.80;;;;;;5038677;28;20448;-66
2023/12/07 11:53:40;;;;;;;3.38;2.47;;;21.90;49.70;;;;;;5040749;28;20021;-65
2023/12/07 11:56:07;;;;;;;4.00;2.50;;;21.90;49.90;;;;;;5038055;28;20054;-65
2023/12/07 11:58:36;;;;;;;3.67;2.30;;;21.90;49.90;;;;;;5037509;28;20073;-65
2023/12/07 12:01:02;;;;;;;3.47;2.40;;;21.90;49.80;;;;;;5039905;28;20275;-65
2023/12/07 12:03:31;;;;;;;3.45;2.25;;;21.90;49.80;;;;;;5038246;28;21096;-66
2023/12/07 12:05:56;;;;;;;4.03;2.67;;;21.90;49.70;;;;;;5039052;28;20584;-66
2023/12/07 12:08:22;;;;;;;5.53;2.83;;;21.90;49.80;;;;;;5037539;28;20037;-66
2023/12/07 12:10:52;;;;;;;3.83;2.40;;;21.90;49.80;;;;;;5036296;28;20033;-67
2023/12/07 12:13:18;;;;;;;4.13;2.42;;;21.80;49.70;;;;;;5069067;28;20440;-67
2023/12/07 12:15:46;;;;;;;3.72;2.30;;;21.80;49.80;;;;;;5054626;28;20029;-67
2023/12/07 12:18:13;;;;;;;3.92;2.40;;;21.80;49.80;;;;;;5038232;28;20056;-68
2023/12/07 12:20:39;;;;;;;3.60;2.20;;;21.90;49.80;;;;;;5039835;28;20021;-66
2023/12/07 12:23:05;;;;;;;4.25;2.97;;;21.80;49.80;;;;;;5038290;28;20526;-66
2023/12/07 12:25:31;;;;;;;3.28;2.08;;;21.80;49.90;;;;;;5039120;28;20033;-67
2023/12/07 12:28:07;;;;;;;4.05;2.30;;;21.80;49.90;;;;;;5035713;28;20099;-67
2023/12/07 12:30:33;;;;;;;3.42;2.40;;;21.80;49.90;;;;;;5039728;28;20029;-66
2023/12/07 12:33:00;;;;;;;3.40;2.10;;;21.80;50.00;;;;;;5039696;28;20037;-66
2023/12/07 12:35:26;;;;;;;3.70;2.10;;;21.80;50.00;;;;;;5036484;28;20021;-66
2023/12/07 12:37:51;;;;;;;3.80;2.55;;;21.80;50.00;;;;;;5038812;28;20392;-66
2023/12/07 12:40:19;;;;;;;3.75;2.47;;;21.80;50.00;;;;;;5037909;28;20029;-67